createdAt,value
2019-01-25T00:02:00.321Z,-3.20
2019-01-25T00:06:11.532Z,-3.10
2019-01-25T00:10:22.679Z,-3.10
2019-01-25T00:14:33.960Z,-3.10
2019-01-25T00:18:45.064Z,-3.10
2019-01-25T00:22:56.546Z,-3.10
2019-01-25T00:27:07.728Z,-3.10
2019-01-25T00:31:18.999Z,-3.20
2019-01-25T00:35:30.128Z,-3.20
2019-01-25T00:39:40.677Z,-3.20
2019-01-25T00:43:51.819Z,-3.20
2019-01-25T00:48:03.304Z,-3.20
2019-01-25T00:52:14.405Z,-3.20
2019-01-25T00:56:27.054Z,-3.20
2019-01-25T01:00:37.502Z,-3.20
2019-01-25T01:04:48.420Z,-3.30
2019-01-25T01:08:59.731Z,-3.30
2019-01-25T01:13:10.942Z,-3.30
2019-01-25T01:17:22.281Z,-3.30
2019-01-25T01:21:33.362Z,-3.30
2019-01-25T01:25:44.421Z,-3.30
2019-01-25T01:29:56.417Z,-3.30
2019-01-25T01:34:09.840Z,-3.30
2019-01-25T01:38:21.029Z,-3.20
2019-01-25T01:42:33.953Z,-3.20
2019-01-25T01:46:44.951Z,-3.20
2019-01-25T01:50:56.092Z,-3.20
2019-01-25T01:55:07.018Z,-3.20
2019-01-25T01:59:20.185Z,-3.20
2019-01-25T02:03:31.615Z,-3.20
2019-01-25T02:07:42.778Z,-3.10
2019-01-25T02:11:54.009Z,-3.10
2019-01-25T02:16:05.146Z,-3.10
2019-01-25T02:20:24.950Z,-3.10
2019-01-25T02:24:34.895Z,-3.10
2019-01-25T02:28:46.125Z,-3.00
2019-01-25T02:32:57.188Z,-3.00
2019-01-25T02:37:08.744Z,-3.10
2019-01-25T02:41:19.702Z,-3.10
2019-01-25T02:45:30.771Z,-3.20
2019-01-25T02:49:42.178Z,-3.30
2019-01-25T02:53:53.728Z,-3.40
2019-01-25T02:58:05.093Z,-3.40
2019-01-25T03:02:18.678Z,-3.40
2019-01-25T03:06:29.608Z,-3.40
2019-01-25T03:10:47.069Z,-3.40
2019-01-25T03:14:52.406Z,-3.40
2019-01-25T03:19:03.319Z,-3.30
2019-01-25T03:23:14.445Z,-3.30
2019-01-25T03:27:25.571Z,-3.30
2019-01-25T03:31:37.936Z,-3.30
2019-01-25T03:35:49.060Z,-3.30
2019-01-25T03:40:00.155Z,-3.20
2019-01-25T03:44:11.298Z,-3.30
2019-01-25T03:48:22.394Z,-3.40
2019-01-25T03:52:33.497Z,-3.40
2019-01-25T03:56:47.957Z,-3.50
2019-01-25T04:00:59.083Z,-3.50
2019-01-25T04:05:12.735Z,-3.50
2019-01-25T04:09:23.686Z,-3.50
2019-01-25T04:13:34.703Z,-3.40
2019-01-25T04:17:45.861Z,-3.40
2019-01-25T04:21:56.832Z,-3.40
2019-01-25T04:26:08.236Z,-3.30
2019-01-25T04:30:27.031Z,-3.20
2019-01-25T04:34:36.943Z,-3.30
2019-01-25T04:38:48.258Z,-3.20
2019-01-25T04:42:58.902Z,-3.20
2019-01-25T04:47:10.346Z,-3.20
2019-01-25T04:51:21.379Z,-3.20
2019-01-25T04:55:32.758Z,-3.20
2019-01-25T04:59:44.330Z,-3.20
2019-01-25T05:03:56.060Z,-3.30
2019-01-25T05:08:12.583Z,-3.30
2019-01-25T05:12:23.608Z,-3.30
2019-01-25T05:16:34.651Z,-3.40
2019-01-25T05:20:45.705Z,-3.40
2019-01-25T05:24:56.758Z,-3.40
2019-01-25T05:29:07.817Z,-3.30
2019-01-25T05:33:19.190Z,-3.30
2019-01-25T05:37:30.160Z,-3.40
2019-01-25T05:41:43.864Z,-3.40
2019-01-25T05:45:54.951Z,-3.40
2019-01-25T05:50:09.504Z,-3.40
2019-01-25T05:54:20.686Z,-3.40
2019-01-25T05:58:30.745Z,-3.40
2019-01-25T06:02:41.800Z,-3.40
2019-01-25T06:06:52.727Z,-3.40
2019-01-25T06:11:05.934Z,-3.40
2019-01-25T06:15:16.902Z,-3.50
2019-01-25T06:19:27.977Z,-3.40
2019-01-25T06:23:38.979Z,-3.30
2019-01-25T06:27:50.141Z,-3.30
2019-01-25T06:32:01.274Z,-3.30
2019-01-25T06:36:13.270Z,-3.30
2019-01-25T06:40:26.263Z,-3.30
2019-01-25T06:44:37.557Z,-3.30
2019-01-25T06:48:47.625Z,-3.30
2019-01-25T06:52:58.772Z,-3.30
2019-01-25T06:57:10.474Z,-3.30
2019-01-25T07:01:23.327Z,-3.30
2019-01-25T07:05:34.350Z,-3.30
2019-01-25T07:09:45.498Z,-3.30
2019-01-25T07:13:56.577Z,-3.30
2019-01-25T07:18:07.531Z,-3.20
2019-01-25T07:22:18.651Z,-3.20
2019-01-25T07:26:29.737Z,-3.10
2019-01-25T07:30:40.914Z,-3.00
2019-01-25T07:34:51.929Z,-3.00
2019-01-25T07:39:06.233Z,-3.00
2019-01-25T07:43:17.296Z,-2.90
2019-01-25T07:47:28.301Z,-2.80
2019-01-25T07:51:39.359Z,-2.80
2019-01-25T07:55:50.463Z,-2.80
2019-01-25T08:00:01.823Z,-2.80
2019-01-25T08:04:12.878Z,-2.80
2019-01-25T08:08:23.971Z,-2.70
2019-01-25T08:12:35.057Z,-2.80
2019-01-25T08:16:46.152Z,-2.90
2019-01-25T08:20:57.227Z,-2.90
2019-01-25T08:25:09.199Z,-2.90
2019-01-25T08:29:27.667Z,-2.90
2019-01-25T08:33:34.430Z,-2.90
2019-01-25T08:37:45.709Z,-2.90
2019-01-25T08:41:56.764Z,-2.80
2019-01-25T08:46:07.977Z,-2.90
2019-01-25T08:50:27.040Z,-2.80
2019-01-25T08:54:38.119Z,-2.70
2019-01-25T08:58:49.180Z,-2.60
2019-01-25T09:03:00.359Z,-2.50
2019-01-25T09:07:11.653Z,-2.40
2019-01-25T09:11:22.597Z,-2.30
2019-01-25T09:15:35.176Z,-2.20
2019-01-25T09:19:45.863Z,-2.30
2019-01-25T09:23:57.105Z,-2.10
2019-01-25T09:28:08.267Z,-2.00
2019-01-25T09:32:19.341Z,-2.00
2019-01-25T09:36:30.969Z,-2.00
2019-01-25T09:40:42.028Z,-1.80
2019-01-25T09:44:54.001Z,-1.70
2019-01-25T09:49:05.078Z,-1.70
2019-01-25T09:53:17.764Z,-1.60
2019-01-25T09:57:29.199Z,-0.80
2019-01-25T10:01:40.363Z,0.80
2019-01-25T10:05:51.479Z,1.10
2019-01-25T10:10:02.747Z,0.00
2019-01-25T10:14:13.803Z,-0.50
2019-01-25T10:18:25.136Z,-0.70
2019-01-25T10:22:36.412Z,-0.80
2019-01-25T10:26:47.460Z,-0.60
2019-01-25T10:30:58.493Z,-0.70
2019-01-25T10:35:11.245Z,-0.60
2019-01-25T10:39:22.454Z,-0.40
2019-01-25T10:43:35.028Z,-0.70
2019-01-25T10:47:47.623Z,-0.90
2019-01-25T10:51:58.540Z,-1.00
2019-01-25T10:56:09.471Z,-1.10
2019-01-25T11:00:23.713Z,-1.00
2019-01-25T11:04:34.739Z,-0.80
2019-01-25T11:08:48.475Z,-0.80
2019-01-25T11:13:01.055Z,-0.90
2019-01-25T11:17:12.170Z,-0.90
2019-01-25T11:21:23.317Z,-0.90
2019-01-25T11:25:41.902Z,-1.00
2019-01-25T11:29:54.670Z,-1.00
2019-01-25T11:34:08.080Z,-1.00
2019-01-25T11:38:23.025Z,-1.00
2019-01-25T11:42:38.744Z,-1.00
2019-01-25T11:46:53.174Z,-1.10
2019-01-25T11:51:08.975Z,-1.00
2019-01-25T11:55:23.401Z,-1.10
2019-01-25T11:59:37.714Z,-1.00
2019-01-25T12:03:53.673Z,-0.90
2019-01-25T12:08:08.691Z,-0.90
2019-01-25T12:12:23.768Z,-1.00
2019-01-25T12:16:39.038Z,-1.00
2019-01-25T12:20:55.847Z,-1.10
2019-01-25T12:25:15.641Z,-1.10
2019-01-25T12:29:31.945Z,-1.00
2019-01-25T12:33:48.391Z,-1.10
2019-01-25T12:38:04.260Z,-1.10
2019-01-25T12:42:20.266Z,-1.10
2019-01-25T12:46:36.314Z,-1.20
2019-01-25T12:50:57.474Z,-1.30
2019-01-25T12:55:14.823Z,-1.30
2019-01-25T12:59:33.552Z,-1.20
2019-01-25T13:03:51.035Z,-1.20
2019-01-25T13:08:10.681Z,-1.30
2019-01-25T13:12:27.705Z,-1.30
2019-01-25T13:16:44.536Z,-1.20
2019-01-25T13:21:02.918Z,-1.10
2019-01-25T13:25:24.544Z,-1.10
2019-01-25T13:29:42.093Z,-1.10
2019-01-25T13:34:03.580Z,-1.10
2019-01-25T13:38:21.141Z,-1.00
2019-01-25T13:42:38.000Z,-1.10
2019-01-25T13:46:58.922Z,-1.00
2019-01-25T13:51:15.460Z,-1.00
2019-01-25T13:55:33.221Z,-0.90
2019-01-25T13:59:49.819Z,-0.90
2019-01-25T14:04:06.437Z,-1.10
2019-01-25T14:08:23.528Z,-1.10
2019-01-25T14:12:40.507Z,-1.20
2019-01-25T14:16:58.497Z,-1.20
2019-01-25T14:21:16.311Z,-1.20
2019-01-25T14:25:33.834Z,-1.20
2019-01-25T14:29:51.256Z,-1.20
2019-01-25T14:34:12.022Z,-1.20
2019-01-25T14:38:29.400Z,-1.20
2019-01-25T14:42:46.555Z,-1.20
2019-01-25T14:47:07.090Z,-1.30
2019-01-25T14:51:24.975Z,-1.20
2019-01-25T14:55:47.955Z,-1.20
2019-01-25T15:00:07.618Z,-1.20
2019-01-25T15:04:25.318Z,-1.20
2019-01-25T15:08:43.681Z,-1.20
2019-01-25T15:13:03.325Z,-1.20
2019-01-25T15:17:20.405Z,-1.20
2019-01-25T15:21:39.420Z,-1.20
2019-01-25T15:25:57.100Z,-1.20
2019-01-25T15:30:22.641Z,-1.20
2019-01-25T15:34:44.479Z,-1.30
2019-01-25T15:39:01.018Z,-1.30
2019-01-25T15:47:52.934Z,-1.40
2019-01-25T15:52:13.716Z,-1.40
2019-01-25T15:56:31.119Z,-1.50
2019-01-25T16:00:48.139Z,-1.50
2019-01-25T16:05:05.171Z,-1.50
2019-01-25T16:09:23.632Z,-1.50
2019-01-25T16:13:41.267Z,-1.50
2019-01-25T16:18:00.578Z,-1.50
2019-01-25T16:22:26.377Z,-1.50
2019-01-25T16:26:45.590Z,-1.50
2019-01-25T16:31:05.141Z,-1.60
2019-01-25T16:35:25.310Z,-1.60
2019-01-25T16:39:46.480Z,-1.50
2019-01-25T16:44:04.691Z,-1.50
2019-01-25T16:48:22.712Z,-1.50
2019-01-25T16:52:41.309Z,-1.50
2019-01-25T16:57:00.995Z,-1.50
2019-01-25T17:01:23.032Z,-1.50
2019-01-25T17:05:41.054Z,-1.60
2019-01-25T17:09:57.557Z,-1.70
2019-01-25T17:14:14.985Z,-1.70
2019-01-25T17:18:31.171Z,-1.80
2019-01-25T17:22:46.883Z,-1.90
2019-01-25T17:27:05.806Z,-1.90
2019-01-25T17:31:23.319Z,-1.90
2019-01-25T17:35:41.302Z,-1.90
2019-01-25T17:39:58.733Z,-2.00
2019-01-25T17:44:18.243Z,-2.00
2019-01-25T17:48:35.501Z,-2.10
2019-01-25T17:52:54.193Z,-2.10
2019-01-25T17:57:13.691Z,-2.20
2019-01-25T18:01:31.297Z,-2.20
2019-01-25T18:05:50.913Z,-2.20
2019-01-25T18:10:12.633Z,-2.20
2019-01-25T18:14:31.783Z,-2.20
2019-01-25T18:18:49.732Z,-2.20
2019-01-25T18:23:07.783Z,-2.10
2019-01-25T18:27:27.043Z,-2.10
2019-01-25T18:31:46.059Z,-2.20
2019-01-25T18:36:06.377Z,-2.10
2019-01-25T18:40:26.527Z,-2.10
2019-01-25T18:44:44.754Z,-2.20
2019-01-25T18:49:09.297Z,-2.20
2019-01-25T18:53:27.788Z,-2.20
2019-01-25T19:02:58.515Z,-2.20
2019-01-25T19:07:18.994Z,-2.30
2019-01-25T19:11:36.200Z,-2.30
2019-01-25T19:15:55.481Z,-2.30
2019-01-25T19:20:14.660Z,-2.30
2019-01-25T19:24:33.246Z,-2.30
2019-01-25T19:28:52.054Z,-2.30
2019-01-25T19:33:17.555Z,-2.30
2019-01-25T19:37:35.464Z,-2.30
2019-01-25T19:41:57.920Z,-2.30
2019-01-25T19:46:18.943Z,-2.30
2019-01-25T19:50:39.172Z,-2.30
2019-01-25T19:55:03.697Z,-2.30
2019-01-25T19:59:27.908Z,-2.30
2019-01-25T20:03:46.071Z,-2.30
2019-01-25T20:08:05.237Z,-2.30
2019-01-25T20:12:22.513Z,-2.30
2019-01-25T20:16:40.383Z,-2.30
2019-01-25T20:20:59.490Z,-2.30
2019-01-25T20:25:21.362Z,-2.30
2019-01-25T20:29:41.118Z,-2.20
2019-01-25T20:33:58.489Z,-2.30
2019-01-25T20:38:16.169Z,-2.20
2019-01-25T20:42:33.577Z,-2.20
2019-01-25T20:46:51.259Z,-2.20
2019-01-25T20:51:15.667Z,-2.10
2019-01-25T20:55:34.400Z,-2.10
2019-01-25T20:59:52.196Z,-2.10
2019-01-25T21:04:10.078Z,-2.10
2019-01-25T21:08:28.100Z,-2.10
2019-01-25T21:12:46.176Z,-2.00
2019-01-25T21:17:04.946Z,-1.90
2019-01-25T21:21:29.761Z,-1.90
2019-01-25T21:25:48.009Z,-1.90
2019-01-25T21:30:10.111Z,-1.90
2019-01-25T21:34:27.589Z,-1.80
2019-01-25T21:38:45.405Z,-1.80
2019-01-25T21:43:04.111Z,-1.70
2019-01-25T21:47:22.475Z,-1.70
2019-01-25T21:51:39.824Z,-1.70
2019-01-25T21:55:56.990Z,-1.60
2019-01-25T22:00:22.136Z,-1.60
2019-01-25T22:04:39.383Z,-1.60
2019-01-25T22:08:56.808Z,-1.60
2019-01-25T22:13:13.947Z,-1.50
2019-01-25T22:17:32.347Z,-1.50
2019-01-25T22:21:50.948Z,-1.50
2019-01-25T22:26:08.610Z,-1.50
2019-01-25T22:30:29.466Z,-1.50
2019-01-25T22:34:46.446Z,-1.50
2019-01-25T22:39:04.032Z,-1.40
2019-01-25T22:43:21.845Z,-1.40
2019-01-25T22:47:38.525Z,-1.30
2019-01-25T22:51:54.523Z,-1.30
2019-01-25T22:56:10.654Z,-1.20
2019-01-25T23:00:50.528Z,-1.20
2019-01-25T23:05:22.586Z,-1.20
2019-01-25T23:09:38.959Z,-1.10
2019-01-25T23:13:55.768Z,-1.10
2019-01-25T23:18:10.656Z,-1.00
2019-01-25T23:22:23.947Z,-1.00
2019-01-25T23:26:37.596Z,-1.00
2019-01-25T23:30:49.328Z,-1.00
2019-01-25T23:35:00.372Z,-1.00
2019-01-25T23:39:13.113Z,-1.00
2019-01-25T23:43:24.163Z,-1.00
2019-01-25T23:47:35.275Z,-0.90
2019-01-25T23:51:46.301Z,-0.90
2019-01-25T23:55:57.141Z,-0.80
